Time;durP1;ratioP1;P1;durP2;ratioP2;P2;SDS_P1;SDS_P2;PMS_P1;PMS_P2;Temp;Humidity;BMP_temperature;BMP_pressure;BME280_temperature;BME280_humidity;BME280_pressure;Samples;Min_cycle;Max_cycle;Signal;HPM_P1;HPM_P2
2022/09/12 00:00:11;;;;;;;7.47;4.43;;;;;;;12.36;100.00;100947.78;4991059;28;20212;-74
2022/09/12 00:02:39;;;;;;;6.40;4.93;;;;;;;12.31;100.00;100943.56;5007981;28;20702;-74
2022/09/12 00:05:06;;;;;;;5.67;4.63;;;;;;;12.23;100.00;100942.06;5008805;28;20200;-74
2022/09/12 00:07:33;;;;;;;5.80;4.63;;;;;;;12.16;100.00;100937.91;4990192;28;20560;-74
2022/09/12 00:09:59;;;;;;;7.10;4.67;;;;;;;12.12;100.00;100931.91;5007744;28;20216;-74
2022/09/12 00:12:26;;;;;;;5.10;3.90;;;;;;;12.03;100.00;100934.75;5006679;28;20243;-74
2022/09/12 00:14:52;;;;;;;5.83;4.20;;;;;;;12.00;100.00;100925.25;4989591;28;20212;-74
2022/09/12 00:17:18;;;;;;;6.10;4.40;;;;;;;12.02;100.00;100927.81;4990137;28;20203;-74
2022/09/12 00:19:46;;;;;;;4.20;3.70;;;;;;;12.01;100.00;100926.09;5008593;28;20235;-74
2022/09/12 00:22:12;;;;;;;4.90;4.40;;;;;;;12.01;100.00;100926.09;5006430;28;20688;-74
2022/09/12 00:24:39;;;;;;;6.30;4.20;;;;;;;11.98;100.00;100929.66;5006871;28;20197;-74
2022/09/12 00:27:06;;;;;;;6.13;4.43;;;;;;;11.89;100.00;100924.63;5008083;28;20621;-74
2022/09/12 00:29:32;;;;;;;5.80;4.23;;;;;;;11.89;100.00;100927.25;5009086;28;20247;-74
2022/09/12 00:31:58;;;;;;;7.03;4.37;;;;;;;11.89;100.00;100927.25;4990023;28;20280;-74
2022/09/12 00:34:25;;;;;;;5.60;4.57;;;;;;;11.87;100.00;100929.94;5006503;28;20208;-74
2022/09/12 00:36:54;;;;;;;4.67;4.13;;;;;;;11.87;100.00;100927.31;4989072;28;20220;-74
2022/09/12 00:39:20;;;;;;;7.27;5.00;;;;;;;11.85;100.00;100925.63;5006521;28;20224;-74
2022/09/12 00:41:46;;;;;;;6.00;4.43;;;;;;;11.81;100.00;100924.00;5008757;28;20280;-74
2022/09/12 00:44:49;;;;;;;5.73;4.60;;;;;;;11.78;100.00;100927.53;5008054;28;20255;-74
2022/09/12 00:47:27;;;;;;;8.23;4.40;;;;;;;11.72;100.00;100928.56;5007744;28;20200;-74
2022/09/12 00:50:05;;;;;;;7.13;4.83;;;;;;;11.78;100.00;100924.06;4991429;28;20216;-74
2022/09/12 00:52:39;;;;;;;5.63;4.43;;;;;;;11.79;100.00;100920.56;5006747;28;20207;-74
2022/09/12 00:55:10;;;;;;;8.27;4.87;;;;;;;11.78;100.00;100924.91;5006331;28;20226;-74
2022/09/12 00:57:41;;;;;;;8.33;5.10;;;;;;;11.78;100.00;100927.53;5007416;28;20201;-74
2022/09/12 01:00:13;;;;;;;6.60;4.87;;;;;;;11.79;100.00;100921.41;4990812;28;20223;-74
2022/09/12 01:02:40;;;;;;;6.60;5.00;;;;;;;11.77;100.00;100928.44;5005944;28;20220;-74
2022/09/12 01:05:08;;;;;;;5.57;4.33;;;;;;;11.79;100.00;100925.81;4987030;28;20212;-74
2022/09/12 01:07:37;;;;;;;5.93;4.20;;;;;;;11.81;100.00;100930.06;5007537;28;20201;-74
2022/09/12 01:10:05;;;;;;;6.40;4.60;;;;;;;11.82;100.00;100929.19;4986462;28;20216;-74
2022/09/12 01:12:33;;;;;;;5.27;4.77;;;;;;;11.84;100.00;100930.00;5006774;28;20586;-74
2022/09/12 01:14:59;;;;;;;5.67;4.63;;;;;;;11.80;100.00;100920.50;5004881;28;20193;-75
2022/09/12 01:17:32;;;;;;;6.20;4.67;;;;;;;11.79;100.00;100934.47;4988689;28;20616;-74
2022/09/12 01:20:34;;;;;;;7.43;5.00;;;;;;;11.84;100.00;100926.53;4985996;28;20232;-74
2022/09/12 01:23:18;;;;;;;5.20;4.30;;;;;;;11.81;100.00;100924.00;4991985;28;20204;-74
2022/09/12 01:26:00;;;;;;;6.20;4.53;;;;;;;11.79;100.00;100925.81;4986601;28;20212;-74
2022/09/12 01:28:54;;;;;;;6.53;4.70;;;;;;;11.77;100.00;100922.34;5005570;28;20185;-74
2022/09/12 01:31:28;;;;;;;6.70;4.53;;;;;;;11.71;100.00;100920.75;5018683;23;20236;-71
2022/09/12 01:34:09;;;;;;;5.77;4.43;;;;;;;11.60;100.00;100917.59;5002149;28;20738;-71
2022/09/12 01:36:48;;;;;;;6.87;4.97;;;;;;;11.56;100.00;100924.63;5003247;28;20200;-70
2022/09/12 01:39:26;;;;;;;6.97;5.00;;;;;;;11.52;100.00;100923.84;5003544;28;20208;-71
2022/09/12 01:42:00;;;;;;;5.60;4.40;;;;;;;11.51;100.00;100922.13;4986207;28;20232;-72
2022/09/12 01:44:37;;;;;;;7.00;4.53;;;;;;;11.59;100.00;100915.84;4986175;28;20200;-73
2022/09/12 01:47:09;;;;;;;7.20;4.30;;;;;;;11.54;100.00;100918.59;4986403;28;20211;-73
2022/09/12 01:49:40;;;;;;;7.17;4.60;;;;;;;11.47;100.00;100914.44;4984946;28;20212;-69
2022/09/12 01:52:14;;;;;;;7.67;5.07;;;;;;;11.44;100.00;100915.34;4977188;28;20212;-73
2022/09/12 01:54:46;;;;;;;6.00;4.40;;;;;;;11.47;100.00;100915.28;4985251;28;20205;-73
2022/09/12 01:57:18;;;;;;;5.83;4.60;;;;;;;11.41;100.00;100918.03;4978303;28;20193;-73
2022/09/12 01:59:50;;;;;;;6.80;5.03;;;;;;;11.41;100.00;100920.63;4986607;28;20216;-73
2022/09/12 02:02:22;;;;;;;5.80;4.53;;;;;;;11.34;100.00;100919.09;4985614;28;20707;-72
2022/09/12 02:04:55;;;;;;;7.40;5.10;;;;;;;11.34;100.00;100917.34;4980655;28;20276;-73
2022/09/12 02:07:27;;;;;;;5.50;4.33;;;;;;;11.32;100.00;100916.50;4984054;28;22310;-73
2022/09/12 02:09:57;;;;;;;6.30;4.63;;;;;;;11.25;100.00;100911.47;4982465;28;20271;-73
2022/09/12 02:12:28;;;;;;;7.57;5.00;;;;;;;11.26;100.00;100908.00;4975487;28;20323;-73
2022/09/12 02:15:01;;;;;;;6.23;4.00;;;;;;;11.23;100.00;100916.72;4982112;28;20552;-73
2022/09/12 02:17:34;;;;;;;5.40;4.23;;;;;;;11.26;100.00;100921.88;4985387;28;20216;-74
2022/09/12 02:20:06;;;;;;;6.87;4.77;;;;;;;11.21;100.00;100918.53;4986041;28;20224;-73
2022/09/12 02:22:35;;;;;;;6.03;4.70;;;;;;;11.22;100.00;100916.75;4984769;28;20212;-74
2022/09/12 02:25:04;;;;;;;8.23;4.57;;;;;;;11.17;100.00;100914.28;4983848;28;20209;-71
2022/09/12 02:27:36;;;;;;;6.20;4.57;;;;;;;11.13;100.00;100916.13;4985267;28;20214;-72
2022/09/12 02:30:04;;;;;;;6.27;4.20;;;;;;;11.05;100.00;100911.97;4984585;28;20230;-71
2022/09/12 02:32:37;;;;;;;6.17;4.53;;;;;;;11.07;100.00;100918.00;4984630;28;20297;-73
2022/09/12 02:35:10;;;;;;;5.23;4.27;;;;;;;11.03;100.00;100912.00;4985037;28;20641;-73
2022/09/12 02:37:52;;;;;;;5.70;4.23;;;;;;;10.96;100.00;100919.09;4985035;28;20200;-73
2022/09/12 02:40:18;;;;;;;7.23;4.63;;;;;;;10.94;100.00;100914.81;4985666;28;20224;-73
2022/09/12 02:42:45;;;;;;;6.40;4.80;;;;;;;10.90;100.00;100916.63;4978927;28;20207;-73
2022/09/12 02:45:12;;;;;;;7.03;4.40;;;;;;;10.95;100.00;100917.38;4985409;28;20547;-72
2022/09/12 02:47:45;;;;;;;6.50;4.30;;;;;;;10.99;100.00;100908.59;4983526;28;20233;-73
2022/09/12 02:50:12;;;;;;;6.07;4.43;;;;;;;10.92;100.00;100913.97;4985681;28;20225;-73
2022/09/12 02:52:41;;;;;;;6.10;4.50;;;;;;;10.99;100.00;100915.56;4978500;28;20225;-73
2022/09/12 02:55:10;;;;;;;7.13;4.00;;;;;;;10.95;100.00;100922.59;4985486;28;20271;-73
2022/09/12 02:57:37;;;;;;;7.67;4.10;;;;;;;10.99;100.00;100918.16;4975031;28;20649;-73
2022/09/12 03:00:04;;;;;;;5.03;4.17;;;;;;;11.04;100.00;100921.53;4980140;28;20221;-73
2022/09/12 03:02:42;;;;;;;6.40;4.50;;;;;;;11.10;100.00;100920.53;4983914;28;20203;-73
2022/09/12 03:05:20;;;;;;;5.90;4.60;;;;;;;11.14;100.00;100923.03;4984018;28;20208;-72
2022/09/12 03:08:23;;;;;;;4.00;3.60;;;;;;;11.23;100.00;100921.09;4981646;28;20200;-72
2022/09/12 03:11:15;;;;;;;5.57;4.20;;;;;;;11.33;100.00;100930.44;4982727;28;20235;-73
2022/09/12 03:13:52;;;;;;;6.57;4.73;;;;;;;11.36;100.00;100931.22;4982703;28;20553;-73
2022/09/12 03:16:28;;;;;;;6.20;4.63;;;;;;;11.36;100.00;100928.59;4985158;28;20202;-72
2022/09/12 03:19:03;;;;;;;8.63;4.93;;;;;;;11.43;100.00;100931.91;4985535;28;20668;-73
2022/09/12 03:21:36;;;;;;;6.37;4.97;;;;;;;11.43;100.00;100928.44;4988623;28;20223;-73
2022/09/12 03:24:13;;;;;;;6.07;4.97;;;;;;;11.49;100.00;100925.69;4984454;28;20285;-71
2022/09/12 03:26:44;;;;;;;6.57;4.53;;;;;;;11.53;100.00;100915.09;4986971;28;20205;-72
2022/09/12 03:29:13;;;;;;;7.27;5.47;;;;;;;11.53;100.00;100922.94;4989497;28;20635;-73
2022/09/12 03:31:48;;;;;;;8.80;5.43;;;;;;;11.52;100.00;100922.97;4981621;28;20244;-73
2022/09/12 03:34:15;;;;;;;6.90;5.00;;;;;;;11.56;100.00;100924.63;4987311;28;20204;-73
2022/09/12 03:36:42;;;;;;;7.37;4.73;;;;;;;11.52;100.00;100925.59;4987352;28;20220;-73
2022/09/12 03:39:09;;;;;;;8.07;5.53;;;;;;;11.45;100.00;100932.75;4987836;28;20216;-73
2022/09/12 03:41:35;;;;;;;8.23;5.60;;;;;;;11.51;100.00;100927.34;4988448;28;20229;-73
2022/09/12 03:44:02;;;;;;;7.90;5.57;;;;;;;11.60;100.00;100928.88;4987328;28;20205;-73
2022/09/12 03:46:28;;;;;;;6.60;4.37;;;;;;;11.63;100.00;100927.97;4987865;28;20217;-72
2022/09/12 03:48:54;;;;;;;7.30;4.97;;;;;;;11.78;100.00;100932.75;4988303;28;20585;-73
2022/09/12 03:51:21;;;;;;;6.87;4.97;;;;;;;11.82;100.00;100931.81;4990483;28;20568;-73
2022/09/12 03:53:48;;;;;;;7.07;4.97;;;;;;;11.85;100.00;100934.31;4986977;28;20212;-73
2022/09/12 03:56:15;;;;;;;6.60;4.63;;;;;;;11.89;100.00;100933.34;4987108;28;20206;-72
2022/09/12 03:58:41;;;;;;;8.10;5.17;;;;;;;11.97;100.00;100934.94;4984978;28;20606;-73
2022/09/12 04:01:11;;;;;;;6.50;4.83;;;;;;;11.97;100.00;100938.38;4976250;28;21090;-72
2022/09/12 04:03:38;;;;;;;7.83;5.07;;;;;;;11.99;100.00;100936.59;4984771;28;20284;-73
2022/09/12 04:06:05;;;;;;;6.53;5.03;;;;;;;12.03;100.00;100947.81;4985364;28;20206;-73
2022/09/12 04:08:31;;;;;;;6.10;4.83;;;;;;;12.07;100.00;100944.25;4980361;28;20665;-72
2022/09/12 04:11:03;;;;;;;6.60;4.87;;;;;;;12.09;100.00;100945.91;4986073;28;20230;-73
2022/09/12 04:13:30;;;;;;;7.57;5.13;;;;;;;12.10;100.00;100947.63;4988602;28;20224;-73
2022/09/12 04:15:57;;;;;;;7.50;5.47;;;;;;;12.12;100.00;100947.59;4985622;28;20216;-72
2022/09/12 04:18:24;;;;;;;7.40;5.17;;;;;;;12.16;100.00;100943.13;4980724;28;20208;-73
2022/09/12 04:20:50;;;;;;;5.80;4.67;;;;;;;12.13;100.00;100950.13;4981500;28;20335;-72
2022/09/12 04:23:16;;;;;;;9.37;5.93;;;;;;;12.13;100.00;100941.44;4984716;28;20216;-73
2022/09/12 04:25:43;;;;;;;8.63;6.00;;;;;;;12.15;100.00;100944.88;4983337;28;20201;-73
2022/09/12 04:28:10;;;;;;;8.43;5.53;;;;;;;12.19;100.00;100946.53;4985301;28;20209;-73
2022/09/12 04:30:37;;;;;;;9.60;6.20;;;;;;;12.24;100.00;100933.31;4997417;28;20239;-72
2022/09/12 04:33:03;;;;;;;7.07;5.73;;;;;;;12.22;100.00;100940.34;5008386;28;20212;-73
2022/09/12 04:35:29;;;;;;;9.67;6.80;;;;;;;12.25;100.00;100937.63;5004299;28;20243;-72
2022/09/12 04:37:56;;;;;;;10.40;6.53;;;;;;;12.28;100.00;100937.56;4998421;28;20213;-73
2022/09/12 04:40:22;;;;;;;9.63;6.47;;;;;;;12.28;100.00;100934.94;5002936;28;20243;-72
2022/09/12 04:42:48;;;;;;;16.33;7.67;;;;;;;12.29;100.00;100927.06;5003050;28;20220;-73
2022/09/12 04:45:16;;;;;;;9.73;6.20;;;;;;;12.32;100.00;100929.56;5001474;28;20458;-72
2022/09/12 04:47:42;;;;;;;11.50;6.90;;;;;;;12.35;100.00;100933.00;4998959;28;20591;-73
2022/09/12 04:50:09;;;;;;;9.97;6.73;;;;;;;12.35;100.00;100938.22;4999669;28;20221;-73
2022/09/12 04:52:35;;;;;;;8.20;5.90;;;;;;;12.33;100.00;100935.69;5002136;28;20205;-73
2022/09/12 04:55:02;;;;;;;10.33;6.07;;;;;;;12.36;100.00;100937.34;4999645;28;20420;-72
2022/09/12 04:57:28;;;;;;;10.23;6.53;;;;;;;12.39;100.00;100938.09;5003351;28;20208;-72
2022/09/12 04:59:54;;;;;;;10.43;6.47;;;;;;;12.42;100.00;100937.19;4999591;28;20228;-71
2022/09/12 05:02:22;;;;;;;13.73;6.83;;;;;;;12.43;100.00;100939.72;4996480;28;20206;-73
2022/09/12 05:04:48;;;;;;;10.60;5.77;;;;;;;12.46;100.00;100941.41;4998967;28;20197;-72
2022/09/12 05:07:15;;;;;;;12.27;7.07;;;;;;;12.49;100.00;100934.31;5000372;28;20209;-72
2022/09/12 05:09:41;;;;;;;12.77;6.93;;;;;;;12.51;100.00;100944.75;4997442;28;20582;-73
2022/09/12 05:12:08;;;;;;;12.97;7.03;;;;;;;12.48;100.00;100943.06;4998532;28;20574;-73
2022/09/12 05:14:34;;;;;;;11.00;7.03;;;;;;;12.50;100.00;100940.41;5000756;28;20196;-72
2022/09/12 05:17:01;;;;;;;11.00;6.53;;;;;;;12.57;100.00;100944.53;5008655;28;20994;-72
2022/09/12 05:19:30;;;;;;;10.30;6.90;;;;;;;12.58;100.00;100948.03;5008572;28;20673;-73
2022/09/12 05:21:57;;;;;;;11.43;7.03;;;;;;;12.61;100.00;100945.31;5003575;28;20308;-73
2022/09/12 05:24:24;;;;;;;10.27;6.60;;;;;;;12.62;100.00;100947.88;5005516;28;20647;-73
2022/09/12 05:26:50;;;;;;;10.60;6.97;;;;;;;12.66;100.00;100946.91;5001436;28;20206;-73
2022/09/12 05:29:17;;;;;;;12.00;7.50;;;;;;;12.66;100.00;100948.66;5004772;28;20212;-73
2022/09/12 05:31:43;;;;;;;13.47;7.83;;;;;;;12.68;100.00;100954.69;5002510;28;20225;-73
2022/09/12 05:34:10;;;;;;;10.80;6.97;;;;;;;12.73;100.00;100955.41;5000071;28;20189;-72
2022/09/12 05:36:38;;;;;;;12.93;7.00;;;;;;;12.73;100.00;100949.34;5005400;28;20216;-72
2022/09/12 05:39:04;;;;;;;12.90;7.97;;;;;;;12.80;100.00;100953.47;5005942;28;20233;-72
2022/09/12 05:41:32;;;;;;;9.60;6.77;;;;;;;12.84;100.00;100950.72;5003645;28;20216;-73
2022/09/12 05:44:00;;;;;;;11.27;7.63;;;;;;;12.79;100.00;100950.00;5003324;28;20673;-73
2022/09/12 05:46:29;;;;;;;12.37;7.83;;;;;;;12.84;100.00;100949.84;5002354;28;20215;-72
2022/09/12 05:48:57;;;;;;;13.70;8.67;;;;;;;12.88;100.00;100947.09;5005695;28;20215;-72
2022/09/12 05:51:25;;;;;;;11.93;7.37;;;;;;;12.92;100.00;100954.88;5009453;28;20226;-71
2022/09/12 05:53:55;;;;;;;12.83;8.23;;;;;;;12.99;100.00;100952.00;5003865;28;20250;-73
2022/09/12 05:56:24;;;;;;;16.73;8.67;;;;;;;13.01;100.00;100952.81;5006256;28;20213;-72
2022/09/12 05:58:54;;;;;;;14.93;8.73;;;;;;;13.06;100.00;100958.75;5003729;28;20837;-73
2022/09/12 06:01:20;;;;;;;15.37;8.70;;;;;;;13.09;100.00;100955.22;5003226;28;20232;-73
2022/09/12 06:03:48;;;;;;;13.53;8.27;;;;;;;13.11;100.00;100949.94;5003585;28;20200;-72
2022/09/12 06:06:17;;;;;;;13.83;8.73;;;;;;;13.12;100.00;100952.50;5004131;28;20689;-72
2022/09/12 06:08:45;;;;;;;13.57;7.83;;;;;;;13.18;100.00;100954.06;5002121;28;20201;-73
2022/09/12 06:11:15;;;;;;;15.00;8.63;;;;;;;13.26;100.00;100954.66;4997998;28;20224;-73
2022/09/12 06:13:42;;;;;;;14.47;9.50;;;;;;;13.34;100.00;100952.69;5001643;28;20213;-73
2022/09/12 06:16:10;;;;;;;15.27;9.30;;;;;;;13.31;100.00;100946.66;4994891;28;20219;-72
2022/09/12 06:18:38;;;;;;;13.90;8.30;;;;;;;13.46;100.00;100947.97;5003884;28;20707;-72
2022/09/12 06:21:06;;;;;;;12.77;8.63;;;;;;;13.48;100.00;100954.88;5001152;28;20228;-73
2022/09/12 06:23:33;;;;;;;16.87;8.80;;;;;;;13.51;100.00;100959.13;4995504;28;20205;-73
2022/09/12 06:26:00;;;;;;;14.50;9.47;;;;;;;13.55;100.00;100955.53;4998150;28;20195;-73
2022/09/12 06:28:28;;;;;;;14.07;8.90;;;;;;;13.65;100.00;100964.78;5004707;28;20275;-72
2022/09/12 06:31:01;;;;;;;15.23;9.27;;;;;;;13.72;100.00;100960.19;5002869;28;20545;-73
2022/09/12 06:33:27;;;;;;;15.10;9.03;;;;;;;13.83;100.00;100966.78;5002802;28;20219;-72
2022/09/12 06:35:54;;;;;;;14.03;8.70;;;;;;;13.90;100.00;100967.44;5002340;28;20211;-72
2022/09/12 06:38:20;;;;;;;14.67;9.07;;;;;;;14.00;100.00;100965.31;5006769;28;20236;-73
2022/09/12 06:40:47;;;;;;;12.53;8.73;;;;;;;14.00;100.00;100970.56;5004357;28;20232;-73
2022/09/12 06:43:13;;;;;;;14.30;8.80;;;;;;;14.07;100.00;100958.09;5005739;28;20232;-73
2022/09/12 06:45:48;;;;;;;12.13;8.37;;;;;;;14.15;100.00;100966.56;5005482;28;20208;-73
2022/09/12 06:48:14;;;;;;;11.30;8.07;;;;;;;14.15;100.00;100964.78;5003820;28;20685;-73
2022/09/12 06:50:41;;;;;;;11.53;8.60;;;;;;;14.25;100.00;100965.34;5007823;28;20225;-73
2022/09/12 06:53:07;;;;;;;12.43;8.40;;;;;;;14.34;100.00;100966.78;5008476;28;20236;-72
2022/09/12 06:55:34;;;;;;;11.03;8.10;;;;;;;14.42;100.00;100969.94;5004472;28;20215;-73
2022/09/12 06:58:00;;;;;;;11.27;8.43;;;;;;;14.49;100.00;100971.47;5008117;28;20210;-73
2022/09/12 07:00:26;;;;;;;10.63;7.97;;;;;;;14.59;100.00;100974.63;5005060;28;20607;-73
2022/09/12 07:02:56;;;;;;;10.67;7.60;;;;;;;14.73;100.00;100972.31;5003219;28;20240;-71
2022/09/12 07:05:22;;;;;;;10.27;7.63;;;;;;;14.84;100.00;100971.06;5006520;28;20669;-73
2022/09/12 07:07:48;;;;;;;11.03;7.47;;;;;;;14.86;100.00;100966.59;5007834;28;20215;-73
2022/09/12 07:10:15;;;;;;;10.10;7.33;;;;;;;14.96;100.00;100971.44;5009085;28;20229;-73
2022/09/12 07:12:41;;;;;;;8.80;6.10;;;;;;;15.01;100.00;100973.03;5008259;28;20254;-72
2022/09/12 07:15:09;;;;;;;9.93;6.37;;;;;;;15.05;100.00;100969.38;5009679;28;20208;-73
2022/09/12 07:17:36;;;;;;;7.73;5.90;;;;;;;15.12;100.00;100970.84;5010222;28;20266;-72
2022/09/12 07:20:04;;;;;;;9.47;6.57;;;;;;;15.22;100.00;100979.22;5013368;28;20220;-73
2022/09/12 07:22:30;;;;;;;9.30;5.93;;;;;;;15.26;100.00;100980.81;5006070;28;20224;-73
2022/09/12 07:24:57;;;;;;;6.20;4.90;;;;;;;15.42;100.00;100974.00;5009026;28;20208;-73
2022/09/12 07:27:23;;;;;;;6.23;5.20;;;;;;;15.47;100.00;100981.72;5005254;28;20209;-72
2022/09/12 07:29:50;;;;;;;6.30;4.63;;;;;;;15.60;100.00;100975.03;5008878;28;20229;-73
2022/09/12 07:32:16;;;;;;;5.93;4.77;;;;;;;15.73;100.00;100982.41;5022085;23;20738;-72
2022/09/12 07:34:43;;;;;;;6.13;4.70;;;;;;;15.69;100.00;100974.66;4991737;28;20209;-71
2022/09/12 07:37:10;;;;;;;7.20;5.27;;;;;;;15.79;100.00;100976.91;5009410;28;20196;-71
2022/09/12 07:39:37;;;;;;;5.03;4.23;;;;;;;15.92;100.00;100982.50;5008180;28;20197;-74
2022/09/12 07:42:04;;;;;;;5.00;3.83;;;;;;;15.98;100.00;100992.75;5018503;28;20720;-71
2022/09/12 07:44:30;;;;;;;4.83;4.00;;;;;;;15.98;100.00;100987.50;5027363;28;20208;-72
2022/09/12 07:46:57;;;;;;;6.03;4.20;;;;;;;16.01;100.00;100995.28;5027526;28;20200;-71
2022/09/12 07:49:23;;;;;;;4.70;4.03;;;;;;;16.11;100.00;100995.72;5026314;28;20267;-72
2022/09/12 07:51:49;;;;;;;4.60;4.00;;;;;;;16.16;100.00;100993.75;5011862;28;20587;-72
2022/09/12 07:54:17;;;;;;;6.70;4.40;;;;;;;16.25;100.00;100996.84;5029154;28;20204;-71
2022/09/12 07:56:44;;;;;;;5.50;4.33;;;;;;;16.41;100.00;101002.28;5031169;28;20214;-72
2022/09/12 07:59:11;;;;;;;4.77;3.73;;;;;;;16.43;100.00;100996.94;5031981;28;20212;-73
2022/09/12 08:01:38;;;;;;;4.80;3.70;;;;;;;16.37;100.00;101000.69;5028595;28;20231;-74
2022/09/12 08:04:05;;;;;;;5.77;3.73;;;;;;;16.38;100.00;100997.13;5028909;28;20286;-71
2022/09/12 08:06:32;;;;;;;5.83;4.07;;;;;;;16.40;100.00;100999.72;5028868;28;20207;-72
2022/09/12 08:09:00;;;;;;;4.30;3.80;;;;;;;16.36;100.00;101004.25;5029661;28;20610;-71
2022/09/12 08:11:29;;;;;;;5.47;3.87;;;;;;;16.41;100.00;101004.03;5034178;28;20699;-72
2022/09/12 08:13:57;;;;;;;4.30;3.70;;;;;;;16.32;100.00;101005.28;5029397;28;20283;-72
2022/09/12 08:16:26;;;;;;;4.27;3.80;;;;;;;16.19;100.00;101002.34;5028960;28;20210;-71
2022/09/12 08:18:52;;;;;;;5.47;3.90;;;;;;;16.22;100.00;101004.84;5029525;28;20219;-71
2022/09/12 08:21:21;;;;;;;3.80;3.50;;;;;;;16.11;100.00;101001.81;5028920;28;20639;-71
2022/09/12 08:23:47;;;;;;;3.80;3.30;;;;;;;16.05;100.00;101005.56;5025770;28;20224;-74
2022/09/12 08:26:14;;;;;;;4.40;3.70;;;;;;;15.92;100.00;101000.91;5023173;28;20685;-71
2022/09/12 08:28:44;;;;;;;5.00;3.83;;;;;;;15.87;100.00;101006.38;5028048;28;20210;-71
2022/09/12 08:31:12;;;;;;;5.13;3.83;;;;;;;15.83;100.00;101000.41;5028788;28;20196;-71
2022/09/12 08:33:39;;;;;;;5.97;3.47;;;;;;;15.90;100.00;101009.72;5026234;28;20203;-72
2022/09/12 08:36:08;;;;;;;3.67;3.07;;;;;;;15.87;100.00;101009.00;5027726;28;20212;-73
2022/09/12 08:38:35;;;;;;;4.53;3.70;;;;;;;15.81;100.00;101003.97;5025158;28;20203;-71
2022/09/12 08:41:06;;;;;;;4.13;2.93;;;;;;;15.87;100.00;101009.00;5028340;28;20200;-72
2022/09/12 08:43:51;;;;;;;3.57;3.07;;;;;;;15.90;100.00;101003.63;5026955;28;20212;-72
2022/09/12 08:46:22;;;;;;;4.43;3.93;;;;;;;15.86;100.00;101002.03;5022663;28;20215;-71
2022/09/12 08:48:48;;;;;;;6.40;4.17;;;;;;;15.89;100.00;101002.75;5029769;28;20208;-71
2022/09/12 08:51:18;;;;;;;4.67;3.70;;;;;;;15.95;100.00;101004.25;5027325;28;20200;-72
2022/09/12 08:53:47;;;;;;;5.70;4.90;;;;;;;16.04;100.00;101005.63;5026541;28;20204;-73
2022/09/12 08:56:13;;;;;;;6.23;4.20;;;;;;;16.01;100.00;101005.78;5025599;28;20200;-72
2022/09/12 08:58:42;;;;;;;5.87;4.00;;;;;;;15.94;100.00;101005.19;5028550;28;20211;-71
2022/09/12 09:01:14;;;;;;;5.93;4.20;;;;;;;16.01;100.00;101006.63;5009302;28;20934;-71
2022/09/12 09:04:10;;;;;;;4.37;3.43;;;;;;;15.99;100.00;101000.59;5018247;28;20224;-72
2022/09/12 09:06:58;;;;;;;3.87;3.17;;;;;;;16.01;100.00;101013.69;5023260;28;20210;-71
2022/09/12 09:09:38;;;;;;;4.70;3.27;;;;;;;15.97;100.00;101002.44;5026835;28;21613;-71
2022/09/12 09:12:15;;;;;;;4.67;3.00;;;;;;;15.91;100.00;100997.44;5027462;28;20219;-71
2022/09/12 09:14:59;;;;;;;3.43;2.50;;;;;;;15.92;100.00;101007.03;5026162;28;20214;-71
2022/09/12 09:17:34;;;;;;;4.17;2.83;;;;;;;15.93;100.00;101014.00;5022782;28;20204;-71
2022/09/12 09:20:05;;;;;;;2.33;2.07;;;;;;;15.95;100.00;101016.56;5026492;28;20203;-71
2022/09/12 09:22:40;;;;;;;3.30;2.50;;;;;;;15.92;100.00;101012.28;5026217;28;20223;-71
2022/09/12 09:25:16;;;;;;;2.60;2.40;;;;;;;15.97;100.00;101014.72;5027201;28;20199;-73
2022/09/12 09:27:48;;;;;;;2.87;2.57;;;;;;;16.12;100.00;101010.59;5027450;28;20199;-71
2022/09/12 09:30:17;;;;;;;2.97;2.40;;;;;;;16.08;100.00;101004.59;5024398;28;20200;-71
2022/09/12 09:32:49;;;;;;;2.27;2.07;;;;;;;16.06;100.00;101012.56;5014027;28;20235;-72
2022/09/12 09:35:18;;;;;;;2.30;2.10;;;;;;;16.06;100.00;101007.31;5006956;28;20300;-71
2022/09/12 09:37:58;;;;;;;2.23;2.03;;;;;;;16.08;100.00;101009.88;5005501;28;20205;-71
2022/09/12 09:40:33;;;;;;;2.70;2.40;;;;;;;16.09;100.00;101004.53;5003962;28;20300;-71
2022/09/12 09:43:05;;;;;;;2.23;2.03;;;;;;;16.14;100.00;101009.59;5003100;28;20282;-72
2022/09/12 09:45:32;;;;;;;2.43;2.23;;;;;;;16.22;100.00;101009.28;5005819;28;20209;-73
2022/09/12 09:48:06;;;;;;;2.23;2.00;;;;;;;16.31;100.00;101013.28;5004784;28;20495;-71
2022/09/12 09:50:33;;;;;;;2.97;2.47;;;;;;;16.38;100.00;101009.44;4995737;28;20688;-71
2022/09/12 09:53:01;;;;;;;2.37;2.10;;;;;;;16.40;100.00;101003.19;5002432;28;20220;-71
2022/09/12 09:55:34;;;;;;;2.63;2.10;;;;;;;16.39;100.00;100996.22;5001464;28;20216;-71
2022/09/12 09:58:00;;;;;;;1.90;1.80;;;;;;;16.35;100.00;101004.31;5003936;28;20294;-72
2022/09/12 10:00:30;;;;;;;2.40;2.07;;;;;;;16.43;100.00;101007.47;5006393;28;20224;-72
2022/09/12 10:03:01;;;;;;;2.00;1.80;;;;;;;16.52;100.00;101001.78;5003227;28;20221;-71
2022/09/12 10:05:29;;;;;;;2.33;2.10;;;;;;;16.54;100.00;101004.34;5002077;28;20205;-71
2022/09/12 10:07:56;;;;;;;2.30;2.10;;;;;;;16.59;100.00;100992.69;4999682;28;20205;-71
2022/09/12 10:10:22;;;;;;;2.27;2.07;;;;;;;16.70;100.00;101001.88;5002553;28;20208;-72
2022/09/12 10:12:49;;;;;;;3.47;2.10;;;;;;;16.68;100.00;100999.31;5005790;28;20636;-72
2022/09/12 10:15:17;;;;;;;2.20;2.00;;;;;;;16.67;100.00;101002.84;4997258;28;20224;-74
2022/09/12 10:17:46;;;;;;;2.80;2.40;;;;;;;16.74;100.00;101006.91;5004475;28;20208;-72
2022/09/12 10:20:33;;;;;;;3.93;2.30;;;;;;;16.65;100.00;101002.06;5000739;28;20208;-72
2022/09/12 10:23:02;;;;;;;1.90;1.63;;;;;;;16.75;100.00;101000.75;5001989;28;20212;-71
2022/09/12 10:25:28;;;;;;;2.30;2.10;;;;;;;16.84;100.00;100988.97;5002341;28;20208;-74
2022/09/12 10:27:58;;;;;;;2.70;1.93;;;;;;;16.84;100.00;100991.59;5002210;28;20250;-71
2022/09/12 10:30:27;;;;;;;2.70;2.27;;;;;;;16.81;100.00;100989.91;5007069;28;20204;-71
2022/09/12 10:32:57;;;;;;;2.33;2.10;;;;;;;16.81;100.00;100986.44;5019625;28;20239;-73
2022/09/12 10:35:29;;;;;;;2.50;2.30;;;;;;;16.73;100.00;100988.59;5019850;28;20215;-72
2022/09/12 10:38:01;;;;;;;3.53;1.87;;;;;;;16.62;100.00;100986.41;5011104;28;20235;-72
2022/09/12 10:40:31;;;;;;;2.73;2.30;;;;;;;16.60;100.00;100990.91;5019839;28;20211;-71
2022/09/12 10:42:59;;;;;;;2.97;2.00;;;;;;;16.62;100.00;100986.41;5006437;28;20224;-72
2022/09/12 10:45:28;;;;;;;3.57;2.50;;;;;;;16.76;100.00;100980.53;5020550;28;20214;-72
2022/09/12 10:47:58;;;;;;;2.47;2.00;;;;;;;16.82;100.00;100986.38;5023616;28;20215;-71
2022/09/12 10:50:30;;;;;;;2.00;1.80;;;;;;;16.83;100.00;100993.38;5015710;28;20205;-71
2022/09/12 10:53:15;;;;;;;3.53;2.03;;;;;;;16.86;100.00;100994.16;5027389;28;20225;-71
2022/09/12 10:55:50;;;;;;;2.03;1.83;;;;;;;17.01;100.00;100989.03;5017664;28;20208;-72
2022/09/12 10:59:02;;;;;;;2.00;1.80;;;;;;;17.19;100.00;100986.44;5026066;28;20211;-71
2022/09/12 11:01:40;;;;;;;1.60;1.50;;;;;;;17.30;100.00;100992.03;4954237;28;20232;-71
2022/09/12 11:04:27;;;;;;;1.40;1.30;;;;;;;17.52;100.00;100981.31;4964329;28;20915;-72
2022/09/12 11:07:16;;;;;;;4.27;1.80;;;;;;;17.60;100.00;100986.19;4994821;28;20212;-72
2022/09/12 11:09:53;;;;;;;1.70;1.60;;;;;;;17.74;100.00;100986.34;5020005;28;20231;-72
2022/09/12 11:12:29;;;;;;;2.00;1.80;;;;;;;17.89;100.00;100987.41;5024562;28;20227;-71
2022/09/12 11:15:07;;;;;;;1.37;1.27;;;;;;;18.03;100.00;100984.06;5025019;28;20196;-71
2022/09/12 11:17:48;;;;;;;1.10;1.07;;;;;;;17.96;100.00;100996.72;5025817;28;20717;-72
2022/09/12 11:20:35;;;;;;;1.57;1.20;;;;;;;18.16;100.00;100985.09;5017270;28;20577;-71
2022/09/12 11:23:20;;;;;;;1.70;1.40;;;;;;;18.22;100.00;100985.72;5018765;28;20235;-73
2022/09/12 11:25:57;;;;;;;1.53;1.43;;;;;;;18.33;100.00;100976.31;5024730;28;20204;-72
2022/09/12 11:28:35;;;;;;;1.07;1.03;;;;;;;18.40;100.00;100974.22;5024223;28;20214;-72